createdAt,value
2023-01-29T00:00:03.809Z,85.71
2023-01-29T00:01:03.788Z,85.71
2023-01-29T00:02:03.912Z,85.74
2023-01-29T00:03:03.852Z,85.60
2023-01-29T00:04:04.214Z,85.60
2023-01-29T00:05:20.774Z,85.39
2023-01-29T00:06:03.789Z,85.50
2023-01-29T00:07:03.753Z,85.71
2023-01-29T00:08:03.742Z,85.50
2023-01-29T00:09:03.791Z,85.60
2023-01-29T00:10:03.784Z,85.50
2023-01-29T00:11:04.021Z,85.29
2023-01-29T00:12:03.689Z,85.50
2023-01-29T00:13:03.677Z,85.50
2023-01-29T00:14:03.674Z,85.39
2023-01-29T00:15:03.734Z,85.50
2023-01-29T00:16:03.705Z,85.60
2023-01-29T00:17:03.678Z,85.60
2023-01-29T00:18:03.903Z,85.71
2023-01-29T00:19:03.637Z,85.71
2023-01-29T00:20:03.597Z,85.60
2023-01-29T00:21:03.598Z,85.60
2023-01-29T00:22:03.643Z,85.71
2023-01-29T00:23:03.572Z,85.81
2023-01-29T00:24:03.680Z,85.85
2023-01-29T00:25:03.843Z,85.91
2023-01-29T00:26:03.536Z,86.06
2023-01-29T00:27:03.552Z,85.96
2023-01-29T00:28:03.595Z,86.16
2023-01-29T00:29:03.522Z,86.16
2023-01-29T00:30:04.375Z,86.06
2023-01-29T00:31:03.630Z,86.27
2023-01-29T00:32:03.926Z,86.47
2023-01-29T00:33:03.454Z,86.47
2023-01-29T00:34:03.498Z,86.58
2023-01-29T00:35:03.476Z,86.69
2023-01-29T00:36:03.434Z,86.69
2023-01-29T00:37:03.417Z,86.69
2023-01-29T00:38:03.417Z,86.79
2023-01-29T00:39:03.693Z,87.00
2023-01-29T00:40:03.419Z,86.79
2023-01-29T00:41:03.392Z,86.90
2023-01-29T00:42:04.245Z,87.00
2023-01-29T00:43:03.399Z,87.00
2023-01-29T00:44:03.449Z,86.69
2023-01-29T00:45:03.445Z,86.79
2023-01-29T00:46:03.670Z,86.79
2023-01-29T00:47:03.320Z,86.79
2023-01-29T00:48:03.346Z,86.90
2023-01-29T00:49:03.290Z,87.00
2023-01-29T00:50:03.346Z,87.15
2023-01-29T00:51:03.304Z,87.25
2023-01-29T00:52:03.304Z,87.25
2023-01-29T00:53:03.575Z,87.25
2023-01-29T00:54:03.251Z,87.35
2023-01-29T00:55:03.239Z,87.35
2023-01-29T00:56:03.263Z,87.35
2023-01-29T00:57:03.283Z,87.35
2023-01-29T00:58:03.271Z,87.46
2023-01-29T00:59:03.217Z,87.46
2023-01-29T01:00:03.471Z,87.56
2023-01-29T01:01:03.301Z,87.56
2023-01-29T01:02:03.191Z,87.56
2023-01-29T01:03:03.175Z,87.56
2023-01-29T01:04:03.178Z,87.46
2023-01-29T01:05:03.168Z,87.56
2023-01-29T01:06:03.119Z,87.46
2023-01-29T01:07:03.399Z,87.66
2023-01-29T01:08:03.158Z,87.56
2023-01-29T01:09:03.115Z,87.56
2023-01-29T01:10:03.105Z,87.56
2023-01-29T01:11:03.091Z,87.66
2023-01-29T01:12:03.068Z,87.77
2023-01-29T01:13:03.052Z,87.77
2023-01-29T01:14:03.367Z,87.77
2023-01-29T01:15:03.068Z,87.77
2023-01-29T01:16:03.055Z,87.98
2023-01-29T01:17:03.001Z,87.98
2023-01-29T01:18:03.037Z,87.98
2023-01-29T01:19:03.006Z,88.09
2023-01-29T01:20:02.968Z,87.98
2023-01-29T01:21:02.958Z,88.09
2023-01-29T01:22:03.001Z,88.09
2023-01-29T01:23:02.951Z,88.09
2023-01-29T01:24:02.941Z,88.09
2023-01-29T01:25:02.967Z,88.09
2023-01-29T01:26:02.945Z,88.09
2023-01-29T01:27:03.229Z,87.98
2023-01-29T01:28:03.855Z,87.98
2023-01-29T01:29:02.923Z,87.98
2023-01-29T01:30:02.862Z,88.09
2023-01-29T01:31:02.850Z,88.09
2023-01-29T01:32:02.900Z,88.09
2023-01-29T01:33:02.838Z,88.19
2023-01-29T01:34:02.847Z,88.19
2023-01-29T01:35:02.831Z,88.29
2023-01-29T01:36:02.834Z,88.29
2023-01-29T01:37:02.799Z,88.19
2023-01-29T01:38:02.780Z,88.29
2023-01-29T01:39:03.072Z,88.19
2023-01-29T01:40:02.804Z,88.29
2023-01-29T01:41:02.789Z,88.19
2023-01-29T01:42:02.749Z,88.19
2023-01-29T01:43:02.718Z,88.09
2023-01-29T01:44:02.701Z,88.09
2023-01-29T01:45:02.731Z,88.19
2023-01-29T01:46:02.790Z,88.19
2023-01-29T01:47:03.381Z,88.19
2023-01-29T01:48:02.698Z,88.29
2023-01-29T01:49:02.653Z,88.40
2023-01-29T01:50:02.653Z,88.40
2023-01-29T01:51:02.920Z,88.40
2023-01-29T01:52:02.721Z,88.50
2023-01-29T01:53:02.610Z,88.50
2023-01-29T01:54:02.621Z,88.50
2023-01-29T01:55:02.618Z,88.50
2023-01-29T01:56:02.640Z,88.50
2023-01-29T01:57:02.588Z,88.40
2023-01-29T01:58:02.615Z,88.54
2023-01-29T01:59:02.560Z,88.50
2023-01-29T02:00:02.813Z,88.50
2023-01-29T02:01:02.581Z,88.75
2023-01-29T02:02:02.560Z,88.86
2023-01-29T02:03:02.531Z,88.86
2023-01-29T02:04:02.598Z,88.65
2023-01-29T02:05:02.494Z,88.54
2023-01-29T02:06:02.505Z,88.54
2023-01-29T02:07:02.473Z,88.54
2023-01-29T02:08:02.504Z,88.65
2023-01-29T02:09:02.450Z,88.65
2023-01-29T02:10:02.491Z,88.65
2023-01-29T02:11:02.424Z,88.75
2023-01-29T02:12:03.702Z,88.75
2023-01-29T02:13:02.418Z,88.65
2023-01-29T02:14:02.398Z,88.54
2023-01-29T02:15:02.390Z,88.54
2023-01-29T02:16:02.412Z,88.75
2023-01-29T02:17:02.367Z,88.86
2023-01-29T02:18:02.355Z,88.75
2023-01-29T02:19:02.662Z,88.75
2023-01-29T02:20:02.347Z,88.86
2023-01-29T02:21:02.356Z,88.86
2023-01-29T02:22:02.356Z,88.86
2023-01-29T02:23:03.644Z,88.96
2023-01-29T02:24:02.382Z,89.07
2023-01-29T02:25:02.294Z,89.07
2023-01-29T02:26:02.545Z,89.07
2023-01-29T02:27:02.266Z,89.17
2023-01-29T02:28:02.291Z,89.28
2023-01-29T02:29:02.268Z,89.28
2023-01-29T02:30:02.253Z,89.38
2023-01-29T02:31:02.279Z,89.38
2023-01-29T02:32:02.255Z,89.38
2023-01-29T02:33:02.475Z,89.48
2023-01-29T02:34:02.239Z,89.48
2023-01-29T02:35:02.179Z,89.48
2023-01-29T02:36:02.184Z,89.38
2023-01-29T02:37:02.185Z,89.38
2023-01-29T02:38:02.150Z,89.59
2023-01-29T02:39:02.152Z,89.70
2023-01-29T02:40:02.455Z,89.70
2023-01-29T02:41:02.121Z,89.70
2023-01-29T02:42:02.119Z,89.80
2023-01-29T02:43:02.138Z,89.90
2023-01-29T02:44:02.121Z,89.90
2023-01-29T02:45:02.088Z,89.90
2023-01-29T02:46:02.172Z,89.90
2023-01-29T02:47:02.086Z,89.90
2023-01-29T02:48:02.089Z,89.90
2023-01-29T02:49:02.060Z,89.90
2023-01-29T02:50:02.038Z,89.80
2023-01-29T02:51:02.032Z,89.90
2023-01-29T02:52:02.042Z,89.90
2023-01-29T02:53:02.305Z,90.01
2023-01-29T02:54:02.023Z,90.11
2023-01-29T02:55:01.972Z,90.11
2023-01-29T02:56:01.956Z,90.11
2023-01-29T02:57:01.962Z,90.11
2023-01-29T02:58:01.984Z,90.11
2023-01-29T02:59:01.926Z,90.26
2023-01-29T03:00:02.196Z,90.33
2023-01-29T03:01:01.962Z,90.43
2023-01-29T03:02:01.948Z,90.43
2023-01-29T03:03:01.888Z,90.43
2023-01-29T03:04:01.956Z,90.53
2023-01-29T03:05:01.874Z,90.64
2023-01-29T03:06:01.861Z,90.64
2023-01-29T03:07:02.136Z,90.64
2023-01-29T03:08:01.852Z,90.58
2023-01-29T03:09:01.850Z,90.53
2023-01-29T03:10:01.939Z,90.64
2023-01-29T03:11:01.809Z,90.53
2023-01-29T03:12:01.823Z,90.53
2023-01-29T03:13:01.835Z,90.43
2023-01-29T03:14:02.084Z,90.43
2023-01-29T03:15:01.777Z,90.43
2023-01-29T03:16:01.806Z,90.43
2023-01-29T03:17:01.749Z,90.33
2023-01-29T03:18:01.801Z,90.33
2023-01-29T03:19:01.727Z,90.33
2023-01-29T03:20:02.715Z,90.43
2023-01-29T03:21:01.715Z,90.53
2023-01-29T03:22:01.738Z,90.53
2023-01-29T03:23:01.696Z,90.43
2023-01-29T03:24:01.766Z,90.43
2023-01-29T03:25:01.674Z,90.43
2023-01-29T03:26:01.662Z,90.53
2023-01-29T03:27:01.937Z,90.64
2023-01-29T03:28:01.700Z,90.74
2023-01-29T03:29:01.618Z,90.74
2023-01-29T03:30:01.619Z,90.74
2023-01-29T03:31:01.618Z,90.84
2023-01-29T03:32:01.621Z,90.84
2023-01-29T03:33:01.581Z,90.74
2023-01-29T03:34:01.607Z,90.84
2023-01-29T03:35:01.611Z,90.74
2023-01-29T03:36:01.575Z,90.53
2023-01-29T03:37:01.553Z,90.43
2023-01-29T03:38:01.553Z,90.53
2023-01-29T03:39:01.821Z,90.53
2023-01-29T03:40:01.567Z,90.53
2023-01-29T03:41:01.538Z,90.64
2023-01-29T03:42:01.496Z,90.64
2023-01-29T03:43:01.509Z,90.64
2023-01-29T03:44:01.495Z,90.64
2023-01-29T03:45:01.473Z,90.64
2023-01-29T03:46:01.564Z,90.64
2023-01-29T03:47:01.452Z,90.74
2023-01-29T03:48:01.430Z,90.70
2023-01-29T03:49:01.451Z,90.70
2023-01-29T03:50:01.417Z,90.70
2023-01-29T03:51:01.685Z,90.70
2023-01-29T03:52:01.459Z,90.70
2023-01-29T03:53:01.380Z,90.70
2023-01-29T03:54:01.376Z,90.81
2023-01-29T03:55:01.414Z,90.81
2023-01-29T03:56:01.376Z,90.84
2023-01-29T03:57:01.325Z,90.81
2023-01-29T03:58:01.663Z,90.91
2023-01-29T03:59:01.338Z,90.70
2023-01-29T04:00:01.304Z,90.70
2023-01-29T04:01:01.296Z,90.59
2023-01-29T04:02:01.292Z,90.49
2023-01-29T04:03:01.268Z,90.49
2023-01-29T04:04:01.360Z,90.39
2023-01-29T04:05:01.587Z,90.39
2023-01-29T04:06:01.232Z,90.28
2023-01-29T04:07:01.247Z,90.49
2023-01-29T04:08:01.225Z,90.59
2023-01-29T04:09:01.230Z,90.49
2023-01-29T04:10:01.240Z,90.49
2023-01-29T04:11:01.195Z,90.59
2023-01-29T04:12:01.491Z,90.59
2023-01-29T04:13:01.172Z,90.59
2023-01-29T04:14:01.161Z,90.59
2023-01-29T04:15:01.143Z,90.59
2023-01-29T04:16:01.187Z,90.49
2023-01-29T04:17:01.136Z,90.49
2023-01-29T04:18:01.140Z,90.59
2023-01-29T04:19:01.397Z,90.59
2023-01-29T04:20:01.105Z,90.49
2023-01-29T04:21:01.090Z,90.39
2023-01-29T04:22:01.101Z,90.39
2023-01-29T04:23:01.063Z,90.59
2023-01-29T04:24:01.084Z,90.81
2023-01-29T04:25:01.047Z,90.70
2023-01-29T04:26:01.323Z,90.59
2023-01-29T04:27:01.028Z,90.49
2023-01-29T04:28:01.106Z,90.39
2023-01-29T04:29:01.011Z,90.39
2023-01-29T04:30:01.012Z,90.28
2023-01-29T04:31:01.200Z,90.28
2023-01-29T04:32:01.026Z,90.18
2023-01-29T04:33:01.257Z,90.08
2023-01-29T04:34:01.003Z,90.08
2023-01-29T04:35:00.942Z,90.18
2023-01-29T04:36:00.942Z,90.18
2023-01-29T04:37:00.923Z,90.08
2023-01-29T04:38:00.929Z,89.97
2023-01-29T04:39:00.945Z,90.08
2023-01-29T04:40:01.230Z,90.18
2023-01-29T04:41:00.899Z,90.28
2023-01-29T04:42:00.878Z,90.28
2023-01-29T04:43:00.868Z,90.28
2023-01-29T04:44:00.863Z,90.28
2023-01-29T04:45:00.837Z,90.39
2023-01-29T04:46:00.858Z,90.39
2023-01-29T04:47:01.101Z,90.49
2023-01-29T04:48:00.813Z,90.49
2023-01-29T04:49:00.830Z,90.59
2023-01-29T04:50:00.804Z,90.49
2023-01-29T04:51:00.783Z,90.49
2023-01-29T04:52:00.827Z,90.53
2023-01-29T04:53:00.772Z,90.49
2023-01-29T04:54:01.049Z,90.59
2023-01-29T04:55:00.741Z,90.53
2023-01-29T04:56:00.735Z,90.64
2023-01-29T04:57:00.709Z,90.64
2023-01-29T04:58:00.738Z,90.84
2023-01-29T04:59:00.715Z,90.84
2023-01-29T05:00:00.744Z,90.95
2023-01-29T05:01:01.050Z,90.95
2023-01-29T05:02:00.740Z,90.95
2023-01-29T05:03:00.696Z,90.95
2023-01-29T05:04:00.675Z,90.84
2023-01-29T05:05:00.645Z,90.84
2023-01-29T05:06:00.630Z,90.84
2023-01-29T05:07:00.616Z,90.95
2023-01-29T05:08:00.952Z,91.06
2023-01-29T05:09:00.587Z,90.95
2023-01-29T05:10:00.623Z,90.95
2023-01-29T05:11:00.575Z,90.95
2023-01-29T05:12:00.585Z,90.84
2023-01-29T05:13:00.588Z,90.95
2023-01-29T05:14:00.545Z,90.95
2023-01-29T05:15:00.819Z,90.84
2023-01-29T05:16:00.637Z,90.95
2023-01-29T05:17:00.504Z,91.16
2023-01-29T05:18:01.225Z,91.27
2023-01-29T05:19:00.487Z,91.27
2023-01-29T05:20:00.477Z,91.27
2023-01-29T05:21:00.472Z,91.37
2023-01-29T05:22:00.820Z,91.37
2023-01-29T05:23:00.447Z,91.37
2023-01-29T05:24:00.480Z,91.47
2023-01-29T05:25:00.442Z,91.47
2023-01-29T05:26:00.455Z,91.37
2023-01-29T05:27:00.406Z,91.47
2023-01-29T05:28:00.508Z,91.58
2023-01-29T05:29:00.679Z,91.58
2023-01-29T05:30:00.416Z,91.58
2023-01-29T05:31:00.492Z,91.58
2023-01-29T05:32:00.376Z,91.58
2023-01-29T05:33:00.366Z,91.58
2023-01-29T05:34:00.384Z,91.58
2023-01-29T05:35:00.328Z,91.58
2023-01-29T05:36:00.600Z,91.58
2023-01-29T05:37:00.307Z,91.58
2023-01-29T05:38:00.299Z,91.69
2023-01-29T05:39:00.290Z,91.69
2023-01-29T05:40:00.337Z,91.69
2023-01-29T05:41:00.297Z,91.69
2023-01-29T05:42:00.255Z,91.79
2023-01-29T05:43:00.518Z,91.58
2023-01-29T05:44:00.240Z,91.58
2023-01-29T05:45:00.279Z,91.58
2023-01-29T05:46:00.321Z,91.69
2023-01-29T05:47:00.198Z,91.58
2023-01-29T05:48:00.217Z,91.27
2023-01-29T05:49:00.184Z,91.37
2023-01-29T05:50:00.479Z,91.37
2023-01-29T05:51:00.193Z,91.12
2023-01-29T05:52:00.193Z,91.22
2023-01-29T05:53:00.174Z,91.33
2023-01-29T05:54:00.132Z,91.22
2023-01-29T05:55:00.115Z,91.22
2023-01-29T05:56:00.123Z,91.33
2023-01-29T05:57:00.373Z,91.22
2023-01-29T05:58:00.124Z,91.22
2023-01-29T05:59:00.098Z,91.22
2023-01-29T06:00:00.098Z,91.12
2023-01-29T06:01:00.103Z,91.12
2023-01-29T06:02:00.185Z,91.12
2023-01-29T06:03:00.105Z,91.12
2023-01-29T06:04:00.378Z,91.12
2023-01-29T06:05:00.028Z,91.12
2023-01-29T06:06:00.030Z,91.02
2023-01-29T06:07:00.035Z,91.02
2023-01-29T06:08:00.036Z,91.12
2023-01-29T06:08:59.975Z,91.12
2023-01-29T06:10:00.012Z,91.12
2023-01-29T06:11:00.251Z,91.12
2023-01-29T06:11:59.948Z,91.22
2023-01-29T06:12:59.931Z,91.12
2023-01-29T06:13:59.931Z,91.02
2023-01-29T06:14:59.918Z,90.91
2023-01-29T06:16:00.263Z,90.91
2023-01-29T06:16:59.903Z,90.81
2023-01-29T06:18:00.159Z,90.81
2023-01-29T06:18:59.901Z,90.70
2023-01-29T06:19:59.906Z,90.81
2023-01-29T06:20:59.882Z,90.70
2023-01-29T06:21:59.899Z,90.59
2023-01-29T06:22:59.828Z,90.56
2023-01-29T06:23:59.932Z,90.59
2023-01-29T06:25:00.114Z,90.56
2023-01-29T06:25:59.811Z,90.56
2023-01-29T06:26:59.817Z,90.59
2023-01-29T06:27:59.831Z,90.34
2023-01-29T06:28:59.763Z,90.34
2023-01-29T06:29:59.761Z,90.34
2023-01-29T06:31:08.365Z,90.34
2023-01-29T06:31:59.890Z,90.45
2023-01-29T06:32:59.749Z,90.45
2023-01-29T06:33:59.787Z,90.45
2023-01-29T06:34:59.721Z,90.45
2023-01-29T06:35:59.748Z,90.45
2023-01-29T06:36:59.697Z,90.24
2023-01-29T06:37:59.998Z,90.14
2023-01-29T06:38:59.670Z,90.14
2023-01-29T06:39:59.706Z,90.24
2023-01-29T06:40:59.641Z,90.14
2023-01-29T06:41:59.641Z,90.24
2023-01-29T06:42:59.635Z,90.24
2023-01-29T06:43:59.650Z,90.24
2023-01-29T06:44:59.615Z,90.14
2023-01-29T06:45:59.671Z,90.14
2023-01-29T06:46:59.601Z,90.24
2023-01-29T06:48:01.413Z,90.24
2023-01-29T06:48:59.606Z,90.24
2023-01-29T06:49:59.846Z,90.24
2023-01-29T06:50:59.544Z,90.34
2023-01-29T06:51:59.582Z,90.34
2023-01-29T06:52:59.544Z,90.34
2023-01-29T06:53:59.521Z,90.34
2023-01-29T06:54:59.512Z,90.34
2023-01-29T06:55:59.493Z,90.34
2023-01-29T06:56:59.482Z,90.45
2023-01-29T06:57:59.512Z,90.45
2023-01-29T06:58:59.466Z,90.34
2023-01-29T07:00:00.369Z,90.45
2023-01-29T07:00:59.476Z,90.45
2023-01-29T07:01:59.890Z,90.56
2023-01-29T07:02:59.430Z,90.56
2023-01-29T07:03:59.470Z,90.56
2023-01-29T07:04:59.409Z,90.56
2023-01-29T07:05:59.393Z,90.56
2023-01-29T07:06:59.416Z,90.56
2023-01-29T07:07:59.380Z,90.45
2023-01-29T07:08:59.674Z,90.56
2023-01-29T07:09:59.430Z,90.56
2023-01-29T07:10:59.349Z,90.56
2023-01-29T07:11:59.353Z,90.34
2023-01-29T07:12:59.328Z,90.45
2023-01-29T07:13:59.337Z,90.45
2023-01-29T07:14:59.293Z,90.34
2023-01-29T07:15:59.691Z,90.34
2023-01-29T07:16:59.387Z,90.45
2023-01-29T07:17:59.279Z,90.45
2023-01-29T07:18:59.261Z,90.34
2023-01-29T07:19:59.262Z,90.45
2023-01-29T07:20:59.285Z,90.56
2023-01-29T07:21:59.289Z,90.56
2023-01-29T07:22:59.517Z,90.56
2023-01-29T07:23:59.259Z,90.45
2023-01-29T07:24:59.232Z,90.45
2023-01-29T07:25:59.219Z,90.45
2023-01-29T07:26:59.191Z,90.45
2023-01-29T07:28:00.892Z,90.34
2023-01-29T07:28:59.166Z,90.34
2023-01-29T07:29:59.457Z,90.34
2023-01-29T07:30:59.271Z,90.34
2023-01-29T07:31:59.258Z,90.45
2023-01-29T07:32:59.193Z,90.45
2023-01-29T07:33:59.153Z,90.34
2023-01-29T07:34:59.115Z,90.24
2023-01-29T07:35:59.134Z,90.34
2023-01-29T07:36:59.093Z,90.09
2023-01-29T07:37:59.070Z,90.09
2023-01-29T07:38:59.066Z,89.99
2023-01-29T07:39:59.114Z,90.20
2023-01-29T07:40:59.082Z,90.24
2023-01-29T07:41:59.053Z,90.20
2023-01-29T07:42:59.334Z,90.09
2023-01-29T07:43:58.994Z,90.09
2023-01-29T07:44:59.005Z,90.09
2023-01-29T07:45:59.086Z,90.03
2023-01-29T07:46:59.007Z,90.09
2023-01-29T07:47:58.983Z,90.24
2023-01-29T07:48:58.984Z,90.31
2023-01-29T07:49:59.219Z,90.31
2023-01-29T07:50:59.032Z,90.41
2023-01-29T07:51:59.019Z,90.41
2023-01-29T07:52:58.957Z,90.41
2023-01-29T07:53:58.935Z,90.52
2023-01-29T07:54:58.914Z,90.52
2023-01-29T07:55:58.915Z,90.62
2023-01-29T07:56:59.180Z,90.52
2023-01-29T07:57:58.898Z,90.52
2023-01-29T07:58:58.858Z,90.31
2023-01-29T07:59:58.851Z,90.52
2023-01-29T08:00:58.994Z,90.72
2023-01-29T08:01:58.846Z,90.62
2023-01-29T08:02:58.828Z,90.62
2023-01-29T08:03:59.164Z,90.77
2023-01-29T08:04:58.827Z,90.77
2023-01-29T08:05:58.784Z,90.83
2023-01-29T08:06:58.829Z,90.83
2023-01-29T08:08:06.525Z,90.77
2023-01-29T08:08:58.765Z,90.72
2023-01-29T08:09:58.805Z,90.93
2023-01-29T08:10:59.037Z,90.83
2023-01-29T08:11:58.753Z,90.97
2023-01-29T08:12:58.717Z,90.97
2023-01-29T08:13:58.749Z,90.97
2023-01-29T08:14:58.700Z,91.08
2023-01-29T08:15:58.717Z,91.18
2023-01-29T08:16:58.691Z,90.97
2023-01-29T08:17:59.004Z,91.08
2023-01-29T08:18:58.657Z,91.28
2023-01-29T08:19:58.711Z,91.18
2023-01-29T08:20:58.622Z,91.18
2023-01-29T08:21:58.733Z,91.18
2023-01-29T08:22:58.642Z,91.28
2023-01-29T08:23:58.819Z,91.18
2023-01-29T08:25:06.287Z,91.28
2023-01-29T08:25:58.744Z,91.28
2023-01-29T08:26:58.605Z,91.28
2023-01-29T08:27:58.614Z,91.39
2023-01-29T08:28:58.562Z,91.50
2023-01-29T08:29:58.553Z,91.39
2023-01-29T08:30:58.528Z,91.18
2023-01-29T08:31:58.900Z,91.18
2023-01-29T08:32:58.522Z,91.08
2023-01-29T08:33:58.565Z,91.18
2023-01-29T08:34:58.540Z,91.25
2023-01-29T08:35:58.482Z,91.14
2023-01-29T08:36:58.518Z,91.14
2023-01-29T08:37:58.479Z,91.25
2023-01-29T08:38:58.781Z,91.14
2023-01-29T08:39:58.523Z,91.14
2023-01-29T08:40:58.508Z,91.25
2023-01-29T08:41:58.431Z,91.25
2023-01-29T08:43:01.502Z,91.35
2023-01-29T08:43:58.398Z,91.46
2023-01-29T08:44:58.420Z,91.35
2023-01-29T08:45:58.792Z,91.35
2023-01-29T08:46:58.392Z,91.35
2023-01-29T08:47:58.393Z,91.35
2023-01-29T08:48:58.386Z,91.35
2023-01-29T08:49:58.349Z,91.25
2023-01-29T08:50:58.411Z,91.14
2023-01-29T08:51:58.444Z,91.03
2023-01-29T08:52:58.643Z,91.14
2023-01-29T08:53:58.285Z,91.14
2023-01-29T08:54:58.370Z,91.03
2023-01-29T08:55:58.328Z,90.93
2023-01-29T08:56:58.284Z,90.93
2023-01-29T08:57:58.444Z,91.03
2023-01-29T08:58:59.193Z,91.10
2023-01-29T08:59:58.515Z,91.10
2023-01-29T09:00:58.322Z,90.78
2023-01-29T09:01:58.260Z,90.68
2023-01-29T09:02:58.255Z,90.78
2023-01-29T09:03:58.353Z,90.78
2023-01-29T09:04:58.172Z,90.68
2023-01-29T09:05:58.181Z,90.68
2023-01-29T09:06:58.495Z,90.68
2023-01-29T09:07:58.177Z,90.68
2023-01-29T09:08:58.152Z,90.58
2023-01-29T09:09:58.190Z,90.58
2023-01-29T09:10:58.134Z,90.68
2023-01-29T09:11:58.151Z,90.58
2023-01-29T09:12:58.135Z,90.58
2023-01-29T09:13:58.376Z,90.47
2023-01-29T09:14:58.096Z,90.47
2023-01-29T09:15:58.818Z,90.37
2023-01-29T09:16:58.169Z,90.47
2023-01-29T09:17:58.132Z,90.47
2023-01-29T09:18:58.063Z,90.47
2023-01-29T09:19:58.133Z,90.26
2023-01-29T09:20:58.333Z,90.26
2023-01-29T09:21:58.589Z,90.16
2023-01-29T09:22:58.103Z,90.26
2023-01-29T09:23:58.013Z,90.26
2023-01-29T09:24:58.071Z,90.26
2023-01-29T09:25:57.995Z,90.16
2023-01-29T09:26:57.992Z,90.06
2023-01-29T09:27:58.342Z,89.95
2023-01-29T09:28:57.981Z,89.95
2023-01-29T09:29:57.986Z,89.91
2023-01-29T09:30:58.068Z,90.01
2023-01-29T09:31:58.034Z,90.06
2023-01-29T09:32:57.955Z,90.01
2023-01-29T09:33:57.990Z,89.95
2023-01-29T09:34:58.195Z,89.95
2023-01-29T09:35:57.920Z,90.06
2023-01-29T09:36:57.883Z,90.06
2023-01-29T09:37:57.931Z,90.06
2023-01-29T09:38:57.843Z,89.91
2023-01-29T09:39:57.888Z,89.91
2023-01-29T09:40:57.851Z,90.01
2023-01-29T09:41:58.080Z,89.91
2023-01-29T09:42:57.866Z,89.91
2023-01-29T09:43:57.887Z,89.91
2023-01-29T09:44:57.802Z,89.91
2023-01-29T09:45:57.993Z,89.91
2023-01-29T09:46:57.745Z,90.12
2023-01-29T09:47:57.850Z,90.01
2023-01-29T09:48:57.773Z,89.91
2023-01-29T09:49:57.768Z,89.70
2023-01-29T09:50:57.743Z,89.59
2023-01-29T09:51:57.843Z,89.49
2023-01-29T09:52:57.779Z,89.39
2023-01-29T09:53:58.057Z,89.39
2023-01-29T09:54:57.798Z,89.39
2023-01-29T09:55:57.754Z,89.49
2023-01-29T09:56:58.394Z,89.59
2023-01-29T09:57:57.713Z,89.59
2023-01-29T09:58:59.186Z,89.59
2023-01-29T09:59:57.638Z,89.70
2023-01-29T10:00:57.640Z,89.49
2023-01-29T10:01:57.778Z,89.59
2023-01-29T10:02:57.618Z,89.70
2023-01-29T10:03:57.761Z,89.70
2023-01-29T10:04:57.656Z,89.49
2023-01-29T10:05:57.887Z,89.59
2023-01-29T10:06:58.487Z,89.49
2023-01-29T10:07:57.594Z,89.59
2023-01-29T10:08:57.602Z,89.49
2023-01-29T10:09:57.617Z,89.39
2023-01-29T10:10:57.635Z,89.49
2023-01-29T10:11:58.232Z,89.70
2023-01-29T10:12:57.837Z,89.59
2023-01-29T10:13:57.520Z,89.81
2023-01-29T10:14:57.516Z,89.70
2023-01-29T10:15:57.522Z,89.45
2023-01-29T10:16:57.618Z,89.56
2023-01-29T10:17:57.528Z,89.59
2023-01-29T10:18:57.517Z,89.56
2023-01-29T10:19:57.798Z,89.66
2023-01-29T10:20:57.511Z,89.56
2023-01-29T10:21:57.509Z,89.45
2023-01-29T10:22:57.421Z,89.34
2023-01-29T10:23:57.499Z,89.24
2023-01-29T10:24:57.508Z,89.14
2023-01-29T10:25:57.461Z,89.14
2023-01-29T10:26:57.711Z,89.14
2023-01-29T10:27:58.502Z,89.34
2023-01-29T10:28:57.382Z,89.34
2023-01-29T10:29:57.331Z,89.34
2023-01-29T10:30:57.449Z,89.45
2023-01-29T10:31:57.479Z,89.14
2023-01-29T10:32:57.435Z,89.34
2023-01-29T10:34:02.798Z,89.45
2023-01-29T10:34:57.401Z,89.45
2023-01-29T10:35:57.321Z,89.34
2023-01-29T10:36:57.349Z,89.34
2023-01-29T10:37:57.270Z,89.34
2023-01-29T10:38:57.297Z,89.24
2023-01-29T10:39:57.398Z,89.03
2023-01-29T10:40:57.565Z,89.24
2023-01-29T10:41:57.267Z,89.14
2023-01-29T10:42:57.238Z,89.03
2023-01-29T10:43:57.321Z,89.24
2023-01-29T10:44:57.237Z,89.14
2023-01-29T10:45:57.279Z,89.34
2023-01-29T10:46:57.414Z,89.34
2023-01-29T10:47:57.484Z,89.34
2023-01-29T10:48:57.273Z,89.24
2023-01-29T10:49:57.157Z,89.34
2023-01-29T10:50:57.182Z,89.34
2023-01-29T10:51:57.251Z,89.24
2023-01-29T10:52:57.394Z,89.24
2023-01-29T10:53:57.144Z,89.14
2023-01-29T10:54:57.397Z,89.34
2023-01-29T10:55:57.149Z,89.34
2023-01-29T10:56:57.725Z,89.45
2023-01-29T10:57:57.113Z,89.24
2023-01-29T10:58:57.104Z,89.14
2023-01-29T10:59:57.108Z,89.24
2023-01-29T11:00:57.065Z,89.03
2023-01-29T11:01:57.392Z,89.03
2023-01-29T11:02:57.102Z,88.93
2023-01-29T11:03:57.195Z,88.93
2023-01-29T11:04:57.069Z,88.82
2023-01-29T11:05:57.979Z,88.93
2023-01-29T11:06:57.057Z,88.82
2023-01-29T11:07:56.939Z,88.78
2023-01-29T11:08:57.335Z,88.47
2023-01-29T11:09:57.004Z,88.57
2023-01-29T11:10:56.937Z,88.37
2023-01-29T11:11:56.969Z,88.37
2023-01-29T11:12:57.027Z,88.47
2023-01-29T11:13:56.936Z,88.37
2023-01-29T11:14:56.937Z,88.26
2023-01-29T11:15:57.291Z,88.26
2023-01-29T11:16:56.946Z,88.37
2023-01-29T11:17:56.938Z,88.37
2023-01-29T11:18:56.865Z,88.16
2023-01-29T11:19:56.862Z,88.26
2023-01-29T11:20:56.880Z,87.91
2023-01-29T11:21:56.970Z,87.74
2023-01-29T11:22:57.108Z,87.63
2023-01-29T11:23:56.829Z,87.18
2023-01-29T11:24:57.574Z,87.07
2023-01-29T11:25:56.838Z,87.01
2023-01-29T11:26:56.794Z,87.01
2023-01-29T11:27:56.848Z,87.22
2023-01-29T11:28:56.825Z,87.12
2023-01-29T11:29:57.055Z,87.12
2023-01-29T11:30:56.927Z,87.01
2023-01-29T11:31:56.856Z,87.12
2023-01-29T11:32:56.821Z,86.91
2023-01-29T11:33:56.820Z,86.91
2023-01-29T11:34:56.700Z,86.91
2023-01-29T11:35:56.731Z,86.80
2023-01-29T11:36:57.063Z,86.80
2023-01-29T11:37:56.637Z,86.91
2023-01-29T11:38:56.663Z,86.87
2023-01-29T11:39:57.218Z,86.66
2023-01-29T11:40:57.443Z,86.69
2023-01-29T11:41:56.684Z,86.55
2023-01-29T11:42:56.635Z,86.38
2023-01-29T11:43:56.903Z,86.49
2023-01-29T11:44:56.612Z,86.49
2023-01-29T11:45:56.670Z,86.45
2023-01-29T11:46:56.598Z,86.55
2023-01-29T11:47:56.596Z,86.49
2023-01-29T11:48:59.336Z,86.55
2023-01-29T11:49:56.585Z,86.55
2023-01-29T11:50:56.911Z,86.45
2023-01-29T11:51:56.567Z,86.55
2023-01-29T11:52:56.509Z,86.66
2023-01-29T11:53:56.545Z,86.87
2023-01-29T11:54:56.478Z,86.45
2023-01-29T11:55:56.513Z,86.45
2023-01-29T11:56:56.540Z,86.55
2023-01-29T11:57:56.897Z,86.35
2023-01-29T11:58:56.458Z,86.24
2023-01-29T11:59:56.509Z,85.72
2023-01-29T12:00:56.435Z,85.93
2023-01-29T12:01:56.418Z,85.93
2023-01-29T12:02:56.465Z,85.72
2023-01-29T12:03:56.476Z,85.93
2023-01-29T12:04:56.680Z,85.93
2023-01-29T12:05:56.399Z,86.03
2023-01-29T12:06:56.424Z,86.24
2023-01-29T12:07:56.394Z,86.13
2023-01-29T12:08:56.347Z,85.82
2023-01-29T12:09:56.439Z,85.47
2023-01-29T12:10:56.348Z,85.36
2023-01-29T12:11:56.719Z,85.05
2023-01-29T12:12:56.303Z,85.16
2023-01-29T12:13:56.302Z,85.16
2023-01-29T12:14:56.345Z,85.36
2023-01-29T12:15:56.350Z,85.26
2023-01-29T12:16:56.258Z,85.36
2023-01-29T12:17:56.328Z,85.47
2023-01-29T12:18:56.550Z,85.36
2023-01-29T12:19:56.264Z,85.58
2023-01-29T12:20:56.298Z,85.26
2023-01-29T12:21:56.322Z,85.05
2023-01-29T12:22:56.232Z,85.05
2023-01-29T12:23:56.174Z,84.95
2023-01-29T12:24:56.237Z,85.16
2023-01-29T12:25:56.552Z,85.05
2023-01-29T12:26:56.154Z,84.84
2023-01-29T12:27:56.289Z,84.95
2023-01-29T12:28:56.174Z,84.95
2023-01-29T12:29:56.117Z,84.84
2023-01-29T12:30:56.166Z,85.05
2023-01-29T12:31:56.096Z,84.64
2023-01-29T12:32:56.147Z,84.95
2023-01-29T12:33:56.306Z,84.74
2023-01-29T12:34:56.075Z,84.64
2023-01-29T12:35:56.130Z,84.74
2023-01-29T12:36:56.055Z,84.74
2023-01-29T12:37:56.372Z,84.64
2023-01-29T12:38:56.099Z,84.74
2023-01-29T12:39:56.184Z,84.84
2023-01-29T12:40:56.000Z,84.95
2023-01-29T12:41:55.957Z,84.64
2023-01-29T12:42:55.985Z,84.64
2023-01-29T12:43:56.009Z,84.70
2023-01-29T12:44:56.059Z,84.60
2023-01-29T12:45:56.028Z,84.18
2023-01-29T12:46:56.014Z,83.97
2023-01-29T12:47:55.946Z,83.87
2023-01-29T12:48:55.922Z,83.87
2023-01-29T12:49:56.167Z,83.56
2023-01-29T12:50:55.993Z,83.76
2023-01-29T12:51:56.012Z,83.97